Time;durP1;ratioP1;P1;durP2;ratioP2;P2;SDS_P1;SDS_P2;PMS_P1;PMS_P2;Temp;Humidity;BMP_temperature;BMP_pressure;BME280_temperature;BME280_humidity;BME280_pressure;Samples;Min_cycle;Max_cycle;Signal;HPM_P1;HPM_P2
2023/06/11 00:00:42;;;;;;;17.13;16.43;;;21.00;99.90;;;;;;5017325;28;20463;-86
2023/06/11 00:03:11;;;;;;;18.00;17.10;;;21.00;99.90;;;;;;5015391;28;20457;-85
2023/06/11 00:05:40;;;;;;;17.50;16.60;;;21.00;99.90;;;;;;5017787;28;20527;-86
2023/06/11 00:08:09;;;;;;;17.83;17.03;;;21.00;99.90;;;;;;5021269;28;20461;-86
2023/06/11 00:10:38;;;;;;;16.50;15.80;;;20.90;99.90;;;;;;5016053;28;20457;-87
2023/06/11 00:13:06;;;;;;;17.73;17.00;;;20.90;99.90;;;;;;5015615;28;20511;-86
2023/06/11 00:15:34;;;;;;;18.03;17.17;;;20.90;99.90;;;;;;5017082;28;20970;-86
2023/06/11 00:18:02;;;;;;;17.77;17.07;;;20.90;99.90;;;;;;5014782;28;20571;-87
2023/06/11 00:20:33;;;;;;;19.13;18.17;;;20.90;99.90;;;;;;5013216;28;20484;-87
2023/06/11 00:23:01;;;;;;;18.83;18.03;;;20.90;99.90;;;;;;5019091;28;21165;-87
2023/06/11 00:25:29;;;;;;;18.23;17.43;;;20.90;99.90;;;;;;5017436;28;20497;-88
2023/06/11 00:27:57;;;;;;;18.00;17.20;;;20.80;99.90;;;;;;5014965;28;20486;-86
2023/06/11 00:30:25;;;;;;;17.53;16.83;;;20.90;99.90;;;;;;5019578;28;20459;-86
2023/06/11 00:32:54;;;;;;;17.67;16.97;;;20.90;99.90;;;;;;5016576;28;20471;-86
2023/06/11 00:35:22;;;;;;;17.87;17.07;;;20.80;99.90;;;;;;5016259;28;20451;-84
2023/06/11 00:37:51;;;;;;;18.37;17.47;;;20.80;99.90;;;;;;5014192;28;20491;-86
2023/06/11 00:40:20;;;;;;;17.80;17.00;;;20.70;99.90;;;;;;5016573;28;20457;-86
2023/06/11 00:42:50;;;;;;;18.83;18.03;;;20.80;99.90;;;;;;5013901;28;20448;-85
2023/06/11 00:45:19;;;;;;;17.70;17.00;;;20.80;99.90;;;;;;5013377;28;20991;-85
2023/06/11 00:47:47;;;;;;;18.20;17.43;;;20.70;99.90;;;;;;5016446;28;20495;-85
2023/06/11 00:50:16;;;;;;;18.33;17.63;;;20.70;99.90;;;;;;5011711;28;20969;-85
2023/06/11 00:52:44;;;;;;;18.50;17.60;;;20.70;99.90;;;;;;5015373;28;20457;-86
2023/06/11 00:55:14;;;;;;;18.30;17.40;;;20.60;99.90;;;;;;5022442;28;20453;-85
2023/06/11 00:57:43;;;;;;;18.10;17.30;;;20.50;99.90;;;;;;5013756;28;20478;-86
2023/06/11 01:00:13;;;;;;;18.10;17.30;;;20.50;99.90;;;;;;5016620;28;20469;-86
2023/06/11 01:02:47;;;;;;;18.57;17.70;;;20.50;99.90;;;;;;5017717;28;20462;-87
2023/06/11 01:05:17;;;;;;;18.57;17.67;;;20.40;99.90;;;;;;5017217;28;20475;-87
2023/06/11 01:07:50;;;;;;;18.53;17.73;;;20.50;99.90;;;;;;5023492;28;21530;-88
2023/06/11 01:10:21;;;;;;;19.33;18.13;;;20.50;99.90;;;;;;5014111;28;20465;-88
2023/06/11 01:12:49;;;;;;;18.67;17.87;;;20.50;99.90;;;;;;5018966;28;20536;-88
2023/06/11 01:15:17;;;;;;;18.53;17.63;;;20.50;99.90;;;;;;5030920;28;20461;-88
2023/06/11 01:17:54;;;;;;;18.57;17.77;;;20.50;99.90;;;;;;5020016;28;20477;-87
2023/06/11 01:20:34;;;;;;;18.20;17.50;;;20.50;99.90;;;;;;5012969;28;20462;-88
2023/06/11 01:23:17;;;;;;;18.43;17.47;;;20.50;99.90;;;;;;5016789;28;20461;-88
2023/06/11 01:26:02;;;;;;;19.07;18.27;;;20.60;99.90;;;;;;5021977;28;20475;-87
2023/06/11 01:28:33;;;;;;;18.87;17.97;;;20.50;99.90;;;;;;5019480;28;20466;-85
2023/06/11 01:31:09;;;;;;;18.00;17.20;;;20.60;99.90;;;;;;5015962;28;20466;-86
2023/06/11 01:33:37;;;;;;;19.20;17.90;;;20.50;99.90;;;;;;5014199;28;20444;-85
2023/06/11 01:36:06;;;;;;;18.83;18.07;;;20.50;99.90;;;;;;5016874;28;21021;-86
2023/06/11 01:38:41;;;;;;;20.00;19.00;;;20.40;99.90;;;;;;5012147;28;20944;-85
2023/06/11 01:41:11;;;;;;;19.07;18.17;;;20.40;99.90;;;;;;5014197;28;21044;-85
2023/06/11 01:43:41;;;;;;;18.57;17.77;;;20.40;99.90;;;;;;5016844;28;20453;-85
2023/06/11 01:46:09;;;;;;;19.40;18.27;;;20.30;99.90;;;;;;5013161;28;20717;-85
2023/06/11 01:48:38;;;;;;;18.63;17.63;;;20.30;99.90;;;;;;5015927;28;20501;-85
2023/06/11 01:51:07;;;;;;;19.33;18.43;;;20.30;99.90;;;;;;5014857;28;20461;-86
2023/06/11 01:53:35;;;;;;;18.67;17.77;;;20.30;99.90;;;;;;5018161;28;20488;-86
2023/06/11 01:56:04;;;;;;;19.00;18.10;;;20.20;99.90;;;;;;5012390;28;20480;-84
2023/06/11 01:58:32;;;;;;;19.20;18.30;;;20.20;99.90;;;;;;5014360;28;20455;-85
2023/06/11 02:01:03;;;;;;;19.53;18.63;;;20.10;1.00;;;;;;5011494;28;20515;-85
2023/06/11 02:03:31;;;;;;;18.90;18.00;;;20.10;1.00;;;;;;5014685;28;20453;-85
2023/06/11 02:06:00;;;;;;;19.27;18.43;;;20.10;1.00;;;;;;5015758;28;20484;-87
2023/06/11 02:08:29;;;;;;;19.37;18.37;;;20.10;1.00;;;;;;5013094;28;20456;-87
2023/06/11 02:10:57;;;;;;;19.43;18.47;;;20.10;1.00;;;;;;5010008;28;20705;-86
2023/06/11 02:13:30;;;;;;;19.77;18.50;;;20.10;1.00;;;;;;5012407;28;20587;-87
2023/06/11 02:15:59;;;;;;;19.77;18.77;;;20.10;1.00;;;;;;5013875;28;20452;-86
2023/06/11 02:18:29;;;;;;;18.77;17.87;;;20.10;1.00;;;;;;5013811;28;20450;-85
2023/06/11 02:20:57;;;;;;;18.50;17.70;;;20.10;1.00;;;;;;5008873;28;20469;-86
2023/06/11 02:23:25;;;;;;;19.13;18.20;;;20.00;1.00;;;;;;5014533;28;20460;-87
2023/06/11 02:25:53;;;;;;;19.93;18.93;;;20.00;1.00;;;;;;5012179;28;20747;-86
2023/06/11 02:28:21;;;;;;;18.50;17.70;;;20.00;1.00;;;;;;5011450;28;21001;-85
2023/06/11 02:30:49;;;;;;;19.30;18.30;;;20.00;1.00;;;;;;5015650;28;20467;-86
2023/06/11 02:33:17;;;;;;;18.97;18.07;;;19.90;1.00;;;;;;5012950;28;20461;-84
2023/06/11 02:35:47;;;;;;;19.93;19.03;;;19.90;1.00;;;;;;5011842;28;20449;-84
2023/06/11 02:38:15;;;;;;;19.77;18.87;;;19.90;1.00;;;;;;5010569;28;21068;-86
2023/06/11 02:40:43;;;;;;;19.10;18.30;;;19.90;1.00;;;;;;5010716;28;20476;-85
2023/06/11 02:43:11;;;;;;;19.90;18.53;;;19.90;1.00;;;;;;5013658;28;20460;-86
2023/06/11 02:45:40;;;;;;;19.03;18.23;;;19.90;1.00;;;;;;5008286;28;20809;-85
2023/06/11 02:48:08;;;;;;;20.07;19.10;;;19.90;1.00;;;;;;5011381;28;20482;-84
2023/06/11 02:50:36;;;;;;;19.50;18.53;;;19.90;1.00;;;;;;5015030;28;20497;-88
2023/06/11 02:53:06;;;;;;;18.93;18.03;;;19.90;1.00;;;;;;5018975;28;20981;-87
2023/06/11 02:55:34;;;;;;;19.97;19.07;;;19.90;1.00;;;;;;5020045;28;20453;-87
2023/06/11 02:58:02;;;;;;;19.47;18.57;;;19.80;1.00;;;;;;5020464;28;21084;-88
2023/06/11 03:00:30;;;;;;;19.17;18.17;;;19.80;1.00;;;;;;5013916;28;20503;-86
2023/06/11 03:02:59;;;;;;;18.80;17.90;;;19.70;1.00;;;;;;5015182;28;21068;-86
2023/06/11 03:05:27;;;;;;;18.87;17.97;;;19.70;1.00;;;;;;5015861;28;20880;-86
2023/06/11 03:07:55;;;;;;;18.70;17.80;;;19.70;1.00;;;;;;5016292;28;20479;-86
2023/06/11 03:10:27;;;;;;;18.87;17.77;;;19.70;1.00;;;;;;5019128;28;21029;-85
2023/06/11 03:12:56;;;;;;;18.70;17.70;;;19.70;1.00;;;;;;5022798;28;21037;-85
2023/06/11 03:15:24;;;;;;;18.83;17.93;;;19.70;1.00;;;;;;5013648;28;21185;-83
2023/06/11 03:17:52;;;;;;;18.30;17.40;;;19.70;1.00;;;;;;5014511;28;20473;-83
2023/06/11 03:20:20;;;;;;;18.57;17.67;;;19.70;1.00;;;;;;5012839;28;20460;-84
2023/06/11 03:22:48;;;;;;;19.80;18.90;;;19.70;1.00;;;;;;5017945;28;20453;-85
2023/06/11 03:25:17;;;;;;;19.57;18.57;;;19.70;1.00;;;;;;5013319;28;21240;-85
2023/06/11 03:27:46;;;;;;;18.23;17.43;;;19.60;1.00;;;;;;5015800;28;20496;-84
2023/06/11 03:30:15;;;;;;;19.10;18.10;;;19.60;1.00;;;;;;5013877;28;20460;-84
2023/06/11 03:32:43;;;;;;;18.95;17.95;;;19.60;1.00;;;;;;5018346;28;20876;-86
2023/06/11 03:35:11;;;;;;;18.33;17.43;;;19.50;1.00;;;;;;5021152;28;20221;-86
2023/06/11 03:37:40;;;;;;;18.43;17.63;;;19.60;1.00;;;;;;5019253;28;21301;-86
2023/06/11 03:40:09;;;;;;;18.23;17.13;;;19.60;1.00;;;;;;5015906;28;20449;-87
2023/06/11 03:42:37;;;;;;;18.37;17.37;;;19.60;1.00;;;;;;5022090;28;20460;-88
2023/06/11 03:45:08;;;;;;;18.83;17.93;;;19.70;1.00;;;;;;5022738;28;20520;-85
2023/06/11 03:47:37;;;;;;;18.20;17.40;;;19.70;1.00;;;;;;5026186;28;20591;-87
2023/06/11 03:50:07;;;;;;;19.00;18.00;;;19.60;1.00;;;;;;5019782;28;20500;-86
2023/06/11 03:52:35;;;;;;;17.50;16.70;;;19.60;1.00;;;;;;5019844;28;22224;-87
2023/06/11 03:55:03;;;;;;;18.10;17.20;;;19.60;1.00;;;;;;5018996;28;20962;-88
2023/06/11 03:57:32;;;;;;;17.03;16.33;;;19.60;1.00;;;;;;5015310;28;20492;-86
2023/06/11 04:00:00;;;;;;;18.60;17.50;;;19.60;1.00;;;;;;5015011;28;20997;-88
2023/06/11 04:02:29;;;;;;;17.93;17.13;;;19.70;1.00;;;;;;5016095;28;20508;-87
2023/06/11 04:04:58;;;;;;;17.90;16.97;;;19.60;1.00;;;;;;5018108;28;21050;-86
2023/06/11 04:07:26;;;;;;;19.93;18.73;;;19.60;1.00;;;;;;5019213;28;20477;-85
2023/06/11 04:09:54;;;;;;;18.03;17.23;;;19.60;1.00;;;;;;5017582;28;20452;-86
2023/06/11 04:12:22;;;;;;;17.80;16.97;;;19.60;1.00;;;;;;5015214;28;20457;-86
2023/06/11 04:14:50;;;;;;;17.63;16.73;;;19.60;1.00;;;;;;5017456;28;20457;-85
2023/06/11 04:17:18;;;;;;;17.97;17.07;;;19.50;1.00;;;;;;5021824;28;20515;-86
2023/06/11 04:19:48;;;;;;;17.13;16.37;;;19.60;1.00;;;;;;5021634;28;20465;-85
2023/06/11 04:22:16;;;;;;;17.77;16.93;;;19.60;1.00;;;;;;5016691;28;20457;-86
2023/06/11 04:24:45;;;;;;;18.20;17.30;;;19.60;1.00;;;;;;5015123;28;20464;-87
2023/06/11 04:27:13;;;;;;;17.77;16.97;;;19.60;1.00;;;;;;5019723;28;20483;-87
2023/06/11 04:29:44;;;;;;;17.17;16.47;;;19.70;1.00;;;;;;5016042;28;20444;-87
2023/06/11 04:32:16;;;;;;;17.80;17.00;;;19.60;1.00;;;;;;5015995;28;20448;-87
2023/06/11 04:34:48;;;;;;;17.17;16.33;;;19.60;1.00;;;;;;5021549;28;20466;-87
2023/06/11 04:37:19;;;;;;;17.23;16.37;;;19.60;1.00;;;;;;5016537;28;20469;-85
2023/06/11 04:39:48;;;;;;;16.97;16.13;;;19.60;1.00;;;;;;5018842;28;20887;-84
2023/06/11 04:42:16;;;;;;;17.13;16.30;;;19.70;1.00;;;;;;5019335;28;20464;-84
2023/06/11 04:44:46;;;;;;;17.83;16.97;;;19.70;1.00;;;;;;5015895;28;20457;-85
2023/06/11 04:47:14;;;;;;;17.10;16.30;;;19.70;1.00;;;;;;5014938;28;20473;-85
2023/06/11 04:49:44;;;;;;;18.17;17.23;;;19.70;1.00;;;;;;5017010;28;20515;-84
2023/06/11 04:52:12;;;;;;;17.97;16.90;;;19.70;1.00;;;;;;5015090;28;20488;-85
2023/06/11 04:54:44;;;;;;;17.07;16.37;;;19.70;1.00;;;;;;5011481;28;20518;-85
2023/06/11 04:57:14;;;;;;;17.90;17.10;;;19.80;1.00;;;;;;5012145;28;20551;-85
2023/06/11 04:59:43;;;;;;;17.83;16.90;;;19.70;1.00;;;;;;5018915;28;20444;-85
2023/06/11 05:02:11;;;;;;;18.10;17.30;;;19.70;1.00;;;;;;5014891;28;20458;-85
2023/06/11 05:04:39;;;;;;;16.97;16.27;;;19.70;1.00;;;;;;5014758;28;20457;-84
2023/06/11 05:07:08;;;;;;;18.20;17.30;;;19.70;1.00;;;;;;5015891;28;20599;-85
2023/06/11 05:09:36;;;;;;;17.67;16.80;;;19.80;1.00;;;;;;5012820;28;20454;-85
2023/06/11 05:12:07;;;;;;;17.00;16.20;;;19.80;1.00;;;;;;5015224;28;20461;-83
2023/06/11 05:14:35;;;;;;;17.63;16.80;;;19.90;1.00;;;;;;5014127;28;20464;-86
2023/06/11 05:17:04;;;;;;;18.40;17.50;;;19.90;1.00;;;;;;5022244;28;20496;-88
2023/06/11 05:19:32;;;;;;;17.60;16.80;;;19.80;1.00;;;;;;5016738;28;20875;-86
2023/06/11 05:22:00;;;;;;;17.90;17.00;;;19.90;1.00;;;;;;5017093;28;20464;-85
2023/06/11 05:24:30;;;;;;;18.47;17.57;;;19.90;1.00;;;;;;5017611;28;20453;-87
2023/06/11 05:27:00;;;;;;;18.30;17.40;;;20.00;1.00;;;;;;5018569;28;20539;-85
2023/06/11 05:29:30;;;;;;;17.37;16.67;;;20.00;1.00;;;;;;5014708;28;20456;-85
2023/06/11 05:31:58;;;;;;;18.10;17.20;;;20.10;1.00;;;;;;5005508;28;20460;-84
2023/06/11 05:34:26;;;;;;;18.20;17.40;;;20.10;1.00;;;;;;5010068;28;20456;-83
2023/06/11 05:36:54;;;;;;;18.33;17.50;;;20.10;1.00;;;;;;5011360;28;20488;-82
2023/06/11 05:39:22;;;;;;;18.93;17.97;;;20.10;1.00;;;;;;5012040;28;20996;-83
2023/06/11 05:41:50;;;;;;;18.33;17.53;;;20.10;1.00;;;;;;5013361;28;20451;-83
2023/06/11 05:44:19;;;;;;;18.90;18.00;;;20.10;1.00;;;;;;5021645;28;20540;-86
2023/06/11 05:46:48;;;;;;;18.07;17.20;;;20.10;1.00;;;;;;5015646;28;20479;-86
2023/06/11 05:49:17;;;;;;;18.33;17.63;;;20.00;1.00;;;;;;5014703;28;20457;-83
2023/06/11 05:51:45;;;;;;;18.53;17.63;;;20.10;1.00;;;;;;5011688;28;20458;-83
2023/06/11 05:54:13;;;;;;;19.10;18.20;;;20.10;1.00;;;;;;5008645;28;20468;-83
2023/06/11 05:56:41;;;;;;;18.23;17.40;;;20.20;1.00;;;;;;5013647;28;21022;-82
2023/06/11 05:59:09;;;;;;;18.33;17.53;;;20.30;1.00;;;;;;5009650;28;20463;-83
2023/06/11 06:01:37;;;;;;;18.27;17.50;;;20.30;1.00;;;;;;5008183;28;20460;-85
2023/06/11 06:04:07;;;;;;;18.60;17.70;;;20.40;1.00;;;;;;5017103;28;20544;-85
2023/06/11 06:06:35;;;;;;;18.23;17.43;;;20.40;1.00;;;;;;5013214;28;20614;-84
2023/06/11 06:09:04;;;;;;;18.70;17.80;;;20.50;1.00;;;;;;5016667;28;20530;-85
2023/06/11 06:11:32;;;;;;;18.53;17.60;;;20.60;1.00;;;;;;5011396;28;20464;-85
2023/06/11 06:14:00;;;;;;;18.80;18.00;;;20.60;1.00;;;;;;5012374;28;20504;-85
2023/06/11 06:16:30;;;;;;;18.70;17.80;;;20.60;1.00;;;;;;5014183;28;20557;-86
2023/06/11 06:18:58;;;;;;;18.60;17.80;;;20.70;1.00;;;;;;5019991;28;20452;-85
2023/06/11 06:21:27;;;;;;;19.17;18.17;;;20.70;1.00;;;;;;5016662;28;20451;-85
2023/06/11 06:24:16;;;;;;;18.70;17.90;;;20.80;1.00;;;;;;5010815;28;20452;-86
2023/06/11 06:26:45;;;;;;;19.00;18.07;;;20.80;99.90;;;;;;5009469;28;20467;-86
2023/06/11 06:29:32;;;;;;;19.63;18.73;;;20.80;1.00;;;;;;5015677;28;20976;-86
2023/06/11 06:32:08;;;;;;;19.38;18.38;;;20.90;1.00;;;;;;5018254;28;20456;-85
2023/06/11 06:39:18;;;;;;;18.53;17.73;;;21.00;99.90;;;;;;4989760;28;20940;-84
2023/06/11 06:41:46;;;;;;;19.27;18.37;;;21.10;99.90;;;;;;5015283;28;21032;-82
2023/06/11 06:44:20;;;;;;;19.98;18.98;;;21.10;99.90;;;;;;5008550;28;20480;-83
2023/06/11 06:50:21;;;;;;;19.43;18.40;;;21.10;99.90;;;;;;5100731;23;20539;-83
2023/06/11 06:53:21;;;;;;;19.17;18.37;;;21.10;99.90;;;;;;4996667;28;20553;-76
2023/06/11 07:00:37;;;;;;;19.37;18.47;;;21.20;99.90;;;;;;4955592;28;20470;-78
2023/06/11 07:03:05;;;;;;;19.27;18.27;;;21.20;99.90;;;;;;4939172;28;21071;-78
2023/06/11 07:05:33;;;;;;;20.33;19.53;;;21.30;99.90;;;;;;4951253;28;20465;-79
2023/06/11 07:08:02;;;;;;;20.40;19.53;;;21.30;99.90;;;;;;4994705;28;20488;-80
2023/06/11 07:10:31;;;;;;;19.70;18.77;;;21.40;99.90;;;;;;4973385;28;20549;-78
2023/06/11 07:12:59;;;;;;;20.20;18.80;;;21.60;99.90;;;;;;4994604;28;20549;-79
2023/06/11 07:15:29;;;;;;;21.10;20.10;;;21.70;99.90;;;;;;4993476;28;20961;-79
2023/06/11 07:17:57;;;;;;;20.07;19.17;;;21.70;99.90;;;;;;4994941;28;20573;-79
2023/06/11 07:20:26;;;;;;;19.40;18.50;;;21.70;99.90;;;;;;4994360;28;20465;-79
2023/06/11 07:22:54;;;;;;;19.70;18.90;;;21.70;99.90;;;;;;4998190;28;20455;-79
2023/06/11 07:25:22;;;;;;;20.33;19.40;;;21.70;99.90;;;;;;4998627;28;20462;-82
2023/06/11 07:27:51;;;;;;;20.27;19.47;;;21.70;99.90;;;;;;4995313;28;20486;-79
2023/06/11 07:30:19;;;;;;;20.30;19.30;;;21.70;99.90;;;;;;4994328;28;20452;-78
2023/06/11 07:32:48;;;;;;;20.20;19.30;;;21.70;99.90;;;;;;4993585;28;20461;-80
2023/06/11 07:35:16;;;;;;;20.30;19.40;;;21.80;99.90;;;;;;4976625;28;20461;-80
2023/06/11 07:37:45;;;;;;;19.70;18.67;;;21.80;99.90;;;;;;4994400;28;20490;-79
2023/06/11 07:40:15;;;;;;;20.43;19.63;;;21.90;99.90;;;;;;4995356;28;20479;-79
2023/06/11 07:42:43;;;;;;;20.07;19.20;;;21.90;99.90;;;;;;4978286;28;20477;-80
2023/06/11 07:45:11;;;;;;;20.77;19.87;;;22.00;99.90;;;;;;4988482;28;20496;-80
2023/06/11 07:47:41;;;;;;;21.10;20.10;;;22.00;99.90;;;;;;4993652;28;20469;-80
2023/06/11 07:50:11;;;;;;;20.27;19.47;;;22.10;99.90;;;;;;4996638;28;20484;-79
2023/06/11 07:52:40;;;;;;;21.10;20.20;;;22.10;99.90;;;;;;4995886;28;20465;-79
2023/06/11 07:55:09;;;;;;;20.10;19.30;;;22.10;99.90;;;;;;4995036;28;20508;-81
2023/06/11 07:57:37;;;;;;;21.23;20.23;;;22.10;99.90;;;;;;4997512;28;20481;-80
2023/06/11 08:00:10;;;;;;;19.67;18.87;;;22.20;99.90;;;;;;4993429;28;20487;-78
2023/06/11 08:02:38;;;;;;;20.20;19.07;;;22.30;99.90;;;;;;4994652;28;20860;-79
2023/06/11 08:05:08;;;;;;;20.50;19.60;;;22.30;99.90;;;;;;4998621;28;20806;-81
2023/06/11 08:07:37;;;;;;;20.43;19.43;;;22.30;99.90;;;;;;4996046;28;20471;-79
2023/06/11 08:10:07;;;;;;;19.73;18.93;;;22.30;99.90;;;;;;4994854;28;20517;-79
2023/06/11 08:12:36;;;;;;;20.03;19.13;;;22.40;99.90;;;;;;4995784;28;20449;-79
2023/06/11 08:15:06;;;;;;;19.10;18.40;;;22.40;99.90;;;;;;4982040;28;20447;-81
2023/06/11 08:17:34;;;;;;;20.03;19.13;;;22.50;99.90;;;;;;4996680;28;20478;-80
2023/06/11 08:20:06;;;;;;;19.43;18.53;;;22.50;99.90;;;;;;4977909;28;20453;-78
2023/06/11 08:22:35;;;;;;;19.77;18.87;;;22.50;99.90;;;;;;4989784;28;20496;-80
2023/06/11 08:25:08;;;;;;;19.20;18.37;;;22.50;99.90;;;;;;4979909;28;20469;-80
2023/06/11 08:27:36;;;;;;;19.00;18.30;;;22.60;99.90;;;;;;4993074;28;20519;-80
2023/06/11 08:30:06;;;;;;;19.30;18.40;;;22.60;99.90;;;;;;4993141;28;21059;-81
2023/06/11 08:32:35;;;;;;;18.63;17.90;;;22.70;99.90;;;;;;4992293;28;20467;-79
2023/06/11 08:35:03;;;;;;;18.43;17.73;;;22.60;99.90;;;;;;4977707;28;20571;-79
2023/06/11 08:37:31;;;;;;;17.97;17.07;;;22.70;99.90;;;;;;4996146;28;20488;-82
2023/06/11 08:40:00;;;;;;;18.50;17.80;;;22.70;99.90;;;;;;4994885;28;21461;-80
2023/06/11 08:42:31;;;;;;;18.90;18.00;;;22.70;99.90;;;;;;4996360;28;20940;-82
2023/06/11 08:45:00;;;;;;;18.23;17.43;;;22.80;99.90;;;;;;4997796;28;22305;-81
2023/06/11 08:47:31;;;;;;;18.80;18.00;;;22.90;99.90;;;;;;4976680;28;20473;-83
2023/06/11 08:50:02;;;;;;;18.43;17.63;;;22.90;99.90;;;;;;4995787;28;20485;-81
2023/06/11 08:52:34;;;;;;;18.83;17.83;;;22.90;99.90;;;;;;4999316;28;20982;-83
2023/06/11 08:55:09;;;;;;;18.97;18.27;;;23.00;99.90;;;;;;4997877;28;20458;-83
2023/06/11 08:57:39;;;;;;;18.47;17.67;;;23.00;99.90;;;;;;4994723;28;20596;-83
2023/06/11 09:00:10;;;;;;;18.47;17.67;;;23.00;99.90;;;;;;4998600;28;20452;-82
2023/06/11 09:02:39;;;;;;;18.93;18.20;;;23.00;99.90;;;;;;4985404;28;20463;-84
2023/06/11 09:05:21;;;;;;;17.47;16.57;;;23.10;99.90;;;;;;5003234;28;20951;-85
2023/06/11 09:07:53;;;;;;;17.70;17.00;;;23.10;99.90;;;;;;5003306;28;20484;-84
2023/06/11 09:10:21;;;;;;;17.53;16.90;;;23.20;99.90;;;;;;5002605;28;20469;-84
2023/06/11 09:12:51;;;;;;;17.53;16.83;;;23.20;99.90;;;;;;4980463;28;20446;-84
2023/06/11 09:18:28;;;;;;;18.50;17.70;;;23.30;99.90;;;;;;4988565;28;20470;-82
2023/06/11 09:21:15;;;;;;;17.33;16.73;;;23.40;99.90;;;;;;5000387;28;20439;-79
2023/06/11 09:23:49;;;;;;;16.67;16.07;;;23.40;99.90;;;;;;4996125;28;20525;-82
2023/06/11 09:26:20;;;;;;;17.67;16.97;;;23.40;99.90;;;;;;4998404;28;20492;-83
2023/06/11 09:28:53;;;;;;;18.00;17.20;;;23.50;99.90;;;;;;4983330;28;20461;-81
2023/06/11 09:41:48;;;;;;;17.00;16.10;;;23.60;99.90;;;;;;4944338;28;20469;-82
2023/06/11 09:44:18;;;;;;;15.70;15.07;;;23.50;99.90;;;;;;4944721;28;20519;-83
2023/06/11 09:46:48;;;;;;;15.97;15.33;;;23.50;99.90;;;;;;4978702;23;20506;-82
2023/06/11 09:49:17;;;;;;;15.57;14.93;;;23.60;99.90;;;;;;4963332;28;20489;-83
2023/06/11 09:51:48;;;;;;;15.47;14.87;;;23.60;99.90;;;;;;4979949;28;21042;-82
2023/06/11 09:54:18;;;;;;;15.77;14.90;;;23.70;99.90;;;;;;4979871;28;20469;-82
2023/06/11 09:56:49;;;;;;;15.50;14.80;;;23.60;99.90;;;;;;4974205;28;20801;-84
2023/06/11 09:59:21;;;;;;;16.23;15.43;;;23.60;99.90;;;;;;4959998;28;20458;-84
2023/06/11 10:01:51;;;;;;;14.93;14.33;;;23.60;99.90;;;;;;4960517;28;20526;-82
2023/06/11 10:04:23;;;;;;;14.63;14.13;;;23.60;99.90;;;;;;4960821;28;20467;-83
2023/06/11 10:06:55;;;;;;;15.57;14.90;;;23.60;99.90;;;;;;4945501;28;20541;-83
2023/06/11 10:09:24;;;;;;;15.63;14.93;;;23.70;99.90;;;;;;4961459;28;20467;-85
2023/06/11 10:11:55;;;;;;;16.13;15.33;;;23.70;99.90;;;;;;4962727;28;20590;-84
2023/06/11 10:14:25;;;;;;;15.93;15.33;;;23.80;99.90;;;;;;4943043;28;20487;-82
2023/06/11 10:16:56;;;;;;;15.37;14.77;;;23.90;99.90;;;;;;4965255;28;20490;-83
2023/06/11 10:19:37;;;;;;;16.20;15.40;;;24.00;99.90;;;;;;4967381;28;20481;-83
2023/06/11 10:22:07;;;;;;;16.00;15.10;;;24.10;99.90;;;;;;4962212;28;20468;-82
2023/06/11 10:24:36;;;;;;;15.20;14.60;;;24.00;99.90;;;;;;4962814;28;21273;-82
2023/06/11 10:28:06;;;;;;;14.50;13.90;;;24.00;99.90;;;;;;4955368;23;20507;-82
2023/06/11 10:30:35;;;;;;;14.70;14.10;;;24.10;99.90;;;;;;4975611;28;20496;-81
2023/06/11 10:40:34;;;;;;;15.87;14.87;;;24.20;99.90;;;;;;4830655;29;20921;-81
2023/06/11 10:43:12;;;;;;;15.57;14.87;;;24.30;99.90;;;;;;4890159;29;20478;-83
2023/06/11 10:46:45;;;;;;;16.03;15.30;;;24.30;99.90;;;;;;4887253;29;20545;-82
2023/06/11 10:52:20;;;;;;;13.93;13.43;;;24.30;99.90;;;;;;4895117;29;20466;-80
2023/06/11 10:54:53;;;;;;;14.20;13.63;;;24.40;99.90;;;;;;4894787;29;20478;-80
2023/06/11 10:57:37;;;;;;;13.90;13.20;;;24.30;99.90;;;;;;4895905;29;20493;-78
2023/06/11 11:00:09;;;;;;;13.77;13.17;;;24.30;99.90;;;;;;4896410;29;20454;-80
2023/06/11 11:06:09;;;;;;;27.90;25.10;;;24.30;99.90;;;;;;4890582;29;20688;-81
2023/06/11 11:08:38;;;;;;;23.90;22.10;;;24.40;99.90;;;;;;4972440;28;20454;-79
2023/06/11 11:11:07;;;;;;;20.13;18.83;;;24.40;99.90;;;;;;4973736;28;20484;-80
2023/06/11 11:13:35;;;;;;;15.77;14.80;;;24.50;99.90;;;;;;4975727;28;20541;-79
2023/06/11 11:16:03;;;;;;;14.30;13.60;;;24.50;99.90;;;;;;4973637;28;20447;-81
2023/06/11 11:18:34;;;;;;;14.00;13.40;;;24.50;99.90;;;;;;4972786;28;20454;-80
2023/06/11 11:21:04;;;;;;;14.03;13.23;;;24.60;99.90;;;;;;4974037;28;20455;-79
2023/06/11 11:23:33;;;;;;;12.40;11.90;;;24.50;99.90;;;;;;4952355;28;20538;-79
2023/06/11 11:26:03;;;;;;;12.93;12.10;;;24.60;99.90;;;;;;4975731;28;20514;-80
2023/06/11 11:28:32;;;;;;;12.50;11.80;;;24.60;99.90;;;;;;4972711;28;20463;-80
2023/06/11 11:31:03;;;;;;;11.60;11.20;;;24.60;99.90;;;;;;4954032;28;21079;-78
2023/06/11 11:33:35;;;;;;;11.90;11.30;;;24.60;99.90;;;;;;4971721;28;21021;-80
2023/06/11 11:36:04;;;;;;;12.67;11.97;;;24.60;99.90;;;;;;4977213;28;20254;-82
2023/06/11 11:38:35;;;;;;;12.80;12.30;;;24.70;99.90;;;;;;4970601;28;20458;-80
2023/06/11 11:41:03;;;;;;;11.30;10.87;;;24.70;99.90;;;;;;4976808;28;20451;-80
2023/06/11 11:43:37;;;;;;;12.70;12.03;;;24.70;99.90;;;;;;4978962;28;20538;-79
2023/06/11 11:46:15;;;;;;;12.97;12.37;;;24.70;99.90;;;;;;4958287;28;21142;-80
2023/06/11 11:48:45;;;;;;;12.60;12.10;;;24.80;99.90;;;;;;4973464;28;20458;-82
2023/06/11 11:51:15;;;;;;;12.60;12.10;;;24.70;99.90;;;;;;4944146;28;20471;-80
2023/06/11 11:53:43;;;;;;;13.43;12.50;;;24.80;99.90;;;;;;4975482;28;20473;-80
2023/06/11 11:56:12;;;;;;;11.90;11.50;;;24.90;99.90;;;;;;4958595;28;20853;-82
2023/06/11 11:58:42;;;;;;;12.33;11.83;;;24.80;99.90;;;;;;4968410;28;20523;-80
2023/06/11 12:01:21;;;;;;;13.60;12.90;;;24.90;99.90;;;;;;4970283;28;20467;-79
2023/06/11 12:03:58;;;;;;;12.40;11.70;;;24.80;99.90;;;;;;4972594;28;20458;-80
2023/06/11 12:06:26;;;;;;;13.10;12.53;;;24.90;99.90;;;;;;4973851;28;20469;-80
2023/06/11 12:08:55;;;;;;;12.37;11.80;;;24.90;99.90;;;;;;4970771;28;20469;-79
2023/06/11 12:11:23;;;;;;;12.10;11.53;;;24.90;99.90;;;;;;4975638;28;20939;-81
2023/06/11 12:13:51;;;;;;;12.43;11.97;;;25.00;99.90;;;;;;4968396;28;20498;-79
2023/06/11 12:16:23;;;;;;;13.37;12.80;;;25.00;99.90;;;;;;4973386;28;20485;-83
2023/06/11 12:18:52;;;;;;;12.90;12.40;;;25.00;99.90;;;;;;4975203;28;20523;-80
2023/06/11 12:21:36;;;;;;;14.47;13.50;;;25.00;99.90;;;;;;4950383;28;20525;-80
2023/06/11 12:24:04;;;;;;;12.90;12.10;;;25.00;99.90;;;;;;4973867;28;20463;-82
2023/06/11 12:26:33;;;;;;;13.37;12.77;;;25.00;99.90;;;;;;4973188;28;20477;-81
2023/06/11 12:29:01;;;;;;;12.00;11.60;;;25.10;99.90;;;;;;4970581;28;20459;-81
2023/06/11 12:31:30;;;;;;;12.03;11.53;;;25.10;99.90;;;;;;4968389;28;20494;-83
2023/06/11 12:33:58;;;;;;;11.77;11.27;;;25.10;99.90;;;;;;4971124;28;20446;-81
2023/06/11 12:36:26;;;;;;;12.10;11.70;;;25.10;99.90;;;;;;4967069;28;20475;-82
2023/06/11 12:38:56;;;;;;;12.10;11.60;;;25.10;99.90;;;;;;4967996;28;20639;-84
2023/06/11 12:41:25;;;;;;;11.60;11.10;;;25.10;99.90;;;;;;4970723;28;20450;-83
2023/06/11 12:43:53;;;;;;;11.53;11.00;;;25.10;99.90;;;;;;4965209;28;20454;-81
2023/06/11 12:46:22;;;;;;;12.83;11.50;;;25.20;99.90;;;;;;4971383;28;20475;-81
2023/06/11 12:48:50;;;;;;;11.83;11.23;;;25.20;99.90;;;;;;4969995;28;20467;-81
2023/06/11 12:51:19;;;;;;;12.30;11.70;;;25.30;99.90;;;;;;4957336;28;20485;-81
2023/06/11 12:53:47;;;;;;;12.87;12.17;;;25.20;99.90;;;;;;4953152;28;20461;-82
2023/06/11 12:56:17;;;;;;;11.70;11.30;;;25.30;99.90;;;;;;4973381;28;21109;-82
2023/06/11 12:58:46;;;;;;;12.10;11.60;;;25.30;99.90;;;;;;4971444;28;20451;-82
2023/06/11 13:01:14;;;;;;;11.60;11.10;;;25.30;99.90;;;;;;4976028;28;20447;-83
2023/06/11 13:03:47;;;;;;;11.90;11.10;;;25.30;99.90;;;;;;4973796;28;20485;-81
2023/06/11 13:06:15;;;;;;;13.13;12.40;;;25.40;99.90;;;;;;4970156;28;20832;-81
2023/06/11 13:08:43;;;;;;;12.70;12.10;;;25.30;99.90;;;;;;4977584;28;20463;-81
2023/06/11 13:11:11;;;;;;;12.70;12.10;;;25.40;99.90;;;;;;4977321;28;20498;-84
2023/06/11 13:13:41;;;;;;;12.20;11.80;;;25.40;99.90;;;;;;4977732;28;20483;-84
2023/06/11 13:16:09;;;;;;;11.40;10.90;;;25.30;99.90;;;;;;4977121;28;20463;-83
2023/06/11 13:18:37;;;;;;;11.53;11.13;;;25.30;99.90;;;;;;4969372;28;20467;-84
2023/06/11 13:21:05;;;;;;;12.13;11.53;;;25.30;99.90;;;;;;4970740;28;20458;-81
2023/06/11 13:23:33;;;;;;;11.20;10.70;;;25.30;99.90;;;;;;4963934;28;20463;-83
2023/06/11 13:28:46;;;;;;;11.87;11.37;;;25.40;99.90;;;;;;4968926;28;20465;-83